sensor_id;sensor_type;location;lat;lon;timestamp;P1;durP1;ratioP1;P2;durP2;ratioP2
21519;SDS011;10921;53.614;9.882;2023-03-14T00:00:50;16.10;;;10.88;;
21519;SDS011;10921;53.614;9.882;2023-03-14T00:03:16;17.35;;;11.18;;
21519;SDS011;10921;53.614;9.882;2023-03-14T00:05:43;14.77;;;11.45;;
21519;SDS011;10921;53.614;9.882;2023-03-14T00:08:10;18.85;;;11.50;;
21519;SDS011;10921;53.614;9.882;2023-03-14T00:10:36;17.75;;;11.50;;
21519;SDS011;10921;53.614;9.882;2023-03-14T00:13:03;15.82;;;11.38;;
21519;SDS011;10921;53.614;9.882;2023-03-14T00:15:31;13.65;;;11.52;;
21519;SDS011;10921;53.614;9.882;2023-03-14T00:17:59;13.27;;;11.05;;
21519;SDS011;10921;53.614;9.882;2023-03-14T00:20:25;16.27;;;11.02;;
21519;SDS011;10921;53.614;9.882;2023-03-14T00:22:52;19.55;;;11.98;;
21519;SDS011;10921;53.614;9.882;2023-03-14T00:25:19;15.02;;;11.48;;
21519;SDS011;10921;53.614;9.882;2023-03-14T00:27:45;22.85;;;12.07;;
21519;SDS011;10921;53.614;9.882;2023-03-14T00:30:11;19.95;;;11.43;;
21519;SDS011;10921;53.614;9.882;2023-03-14T00:32:38;16.10;;;11.45;;
21519;SDS011;10921;53.614;9.882;2023-03-14T00:35:05;19.27;;;11.60;;
21519;SDS011;10921;53.614;9.882;2023-03-14T00:37:32;20.45;;;11.38;;
21519;SDS011;10921;53.614;9.882;2023-03-14T00:39:59;18.88;;;11.40;;
21519;SDS011;10921;53.614;9.882;2023-03-14T00:42:25;23.05;;;11.57;;
21519;SDS011;10921;53.614;9.882;2023-03-14T00:44:52;19.00;;;11.27;;
21519;SDS011;10921;53.614;9.882;2023-03-14T00:47:18;17.10;;;10.88;;
21519;SDS011;10921;53.614;9.882;2023-03-14T00:49:45;21.48;;;10.90;;
21519;SDS011;10921;53.614;9.882;2023-03-14T00:52:11;19.00;;;10.68;;
21519;SDS011;10921;53.614;9.882;2023-03-14T00:54:38;15.80;;;12.02;;
21519;SDS011;10921;53.614;9.882;2023-03-14T00:57:04;19.60;;;10.48;;
21519;SDS011;10921;53.614;9.882;2023-03-14T00:59:31;15.57;;;10.70;;
21519;SDS011;10921;53.614;9.882;2023-03-14T01:01:57;20.40;;;11.15;;
21519;SDS011;10921;53.614;9.882;2023-03-14T01:04:24;25.40;;;12.07;;
21519;SDS011;10921;53.614;9.882;2023-03-14T01:06:50;18.95;;;11.73;;
21519;SDS011;10921;53.614;9.882;2023-03-14T01:09:17;17.52;;;10.77;;
21519;SDS011;10921;53.614;9.882;2023-03-14T01:11:44;18.92;;;10.60;;
21519;SDS011;10921;53.614;9.882;2023-03-14T01:14:12;24.08;;;11.82;;
21519;SDS011;10921;53.614;9.882;2023-03-14T01:16:39;17.98;;;11.77;;
21519;SDS011;10921;53.614;9.882;2023-03-14T01:19:06;23.45;;;11.25;;
21519;SDS011;10921;53.614;9.882;2023-03-14T01:21:34;21.02;;;10.93;;
21519;SDS011;10921;53.614;9.882;2023-03-14T01:24:02;22.83;;;11.40;;
21519;SDS011;10921;53.614;9.882;2023-03-14T01:26:31;17.63;;;10.90;;
21519;SDS011;10921;53.614;9.882;2023-03-14T01:28:59;15.63;;;10.25;;
21519;SDS011;10921;53.614;9.882;2023-03-14T01:31:26;22.10;;;11.18;;
21519;SDS011;10921;53.614;9.882;2023-03-14T01:33:53;22.80;;;10.88;;
21519;SDS011;10921;53.614;9.882;2023-03-14T01:36:19;20.17;;;11.38;;
21519;SDS011;10921;53.614;9.882;2023-03-14T01:38:46;18.35;;;10.65;;
21519;SDS011;10921;53.614;9.882;2023-03-14T01:41:14;16.17;;;11.02;;
21519;SDS011;10921;53.614;9.882;2023-03-14T01:43:42;22.88;;;11.25;;
21519;SDS011;10921;53.614;9.882;2023-03-14T01:48:46;23.85;;;11.15;;
21519;SDS011;10921;53.614;9.882;2023-03-14T01:51:23;25.60;;;11.13;;
21519;SDS011;10921;53.614;9.882;2023-03-14T01:53:54;18.23;;;11.68;;
21519;SDS011;10921;53.614;9.882;2023-03-14T01:56:27;18.50;;;11.35;;
21519;SDS011;10921;53.614;9.882;2023-03-14T01:58:54;23.55;;;11.48;;
21519;SDS011;10921;53.614;9.882;2023-03-14T02:01:21;16.42;;;11.63;;
21519;SDS011;10921;53.614;9.882;2023-03-14T02:03:55;21.45;;;11.75;;
21519;SDS011;10921;53.614;9.882;2023-03-14T02:06:26;19.05;;;11.52;;
21519;SDS011;10921;53.614;9.882;2023-03-14T02:09:00;14.60;;;11.90;;
21519;SDS011;10921;53.614;9.882;2023-03-14T02:11:28;21.23;;;11.45;;
21519;SDS011;10921;53.614;9.882;2023-03-14T02:13:57;18.55;;;11.60;;
21519;SDS011;10921;53.614;9.882;2023-03-14T02:16:25;19.52;;;11.95;;
21519;SDS011;10921;53.614;9.882;2023-03-14T02:18:52;18.50;;;11.85;;
21519;SDS011;10921;53.614;9.882;2023-03-14T02:21:21;21.25;;;12.00;;
21519;SDS011;10921;53.614;9.882;2023-03-14T02:29:37;16.83;;;12.77;;
21519;SDS011;10921;53.614;9.882;2023-03-14T02:32:11;20.63;;;12.43;;
21519;SDS011;10921;53.614;9.882;2023-03-14T02:34:39;18.88;;;12.00;;
21519;SDS011;10921;53.614;9.882;2023-03-14T02:37:08;19.30;;;12.43;;
21519;SDS011;10921;53.614;9.882;2023-03-14T02:39:37;21.00;;;13.32;;
21519;SDS011;10921;53.614;9.882;2023-03-14T02:42:06;24.23;;;12.80;;
21519;SDS011;10921;53.614;9.882;2023-03-14T02:44:32;20.20;;;12.38;;
21519;SDS011;10921;53.614;9.882;2023-03-14T02:46:59;17.40;;;12.15;;
21519;SDS011;10921;53.614;9.882;2023-03-14T02:49:25;20.85;;;12.35;;
21519;SDS011;10921;53.614;9.882;2023-03-14T02:51:56;22.38;;;12.32;;
21519;SDS011;10921;53.614;9.882;2023-03-14T02:54:22;17.23;;;12.63;;
21519;SDS011;10921;53.614;9.882;2023-03-14T02:56:49;22.40;;;13.10;;
21519;SDS011;10921;53.614;9.882;2023-03-14T02:59:15;19.27;;;12.45;;
21519;SDS011;10921;53.614;9.882;2023-03-14T03:01:42;18.25;;;11.68;;
21519;SDS011;10921;53.614;9.882;2023-03-14T03:04:08;18.08;;;12.40;;
21519;SDS011;10921;53.614;9.882;2023-03-14T03:06:35;20.90;;;12.82;;
21519;SDS011;10921;53.614;9.882;2023-03-14T03:09:01;22.88;;;12.07;;
21519;SDS011;10921;53.614;9.882;2023-03-14T03:11:28;18.35;;;12.38;;
21519;SDS011;10921;53.614;9.882;2023-03-14T03:13:54;17.13;;;11.75;;
21519;SDS011;10921;53.614;9.882;2023-03-14T03:16:21;18.55;;;12.18;;
21519;SDS011;10921;53.614;9.882;2023-03-14T03:18:47;22.30;;;12.30;;
21519;SDS011;10921;53.614;9.882;2023-03-14T03:21:14;18.27;;;12.43;;
21519;SDS011;10921;53.614;9.882;2023-03-14T03:23:41;20.15;;;12.20;;
21519;SDS011;10921;53.614;9.882;2023-03-14T03:26:09;19.35;;;11.85;;
21519;SDS011;10921;53.614;9.882;2023-03-14T03:28:36;17.65;;;12.55;;
21519;SDS011;10921;53.614;9.882;2023-03-14T03:31:06;21.98;;;12.45;;
21519;SDS011;10921;53.614;9.882;2023-03-14T03:33:34;15.88;;;12.20;;
21519;SDS011;10921;53.614;9.882;2023-03-14T03:36:02;16.13;;;11.38;;
21519;SDS011;10921;53.614;9.882;2023-03-14T03:38:29;18.77;;;11.13;;
21519;SDS011;10921;53.614;9.882;2023-03-14T03:40:56;22.02;;;12.10;;
21519;SDS011;10921;53.614;9.882;2023-03-14T03:43:22;16.13;;;11.73;;
21519;SDS011;10921;53.614;9.882;2023-03-14T03:45:49;13.90;;;10.93;;
21519;SDS011;10921;53.614;9.882;2023-03-14T03:48:15;17.20;;;11.10;;
21519;SDS011;10921;53.614;9.882;2023-03-14T03:50:45;17.65;;;10.80;;
21519;SDS011;10921;53.614;9.882;2023-03-14T03:55:41;20.13;;;11.73;;
21519;SDS011;10921;53.614;9.882;2023-03-14T03:58:08;16.48;;;11.50;;
21519;SDS011;10921;53.614;9.882;2023-03-14T04:00:35;18.15;;;11.88;;
21519;SDS011;10921;53.614;9.882;2023-03-14T04:03:01;17.20;;;11.50;;
21519;SDS011;10921;53.614;9.882;2023-03-14T04:05:28;18.98;;;11.88;;
21519;SDS011;10921;53.614;9.882;2023-03-14T04:07:54;19.80;;;11.85;;
21519;SDS011;10921;53.614;9.882;2023-03-14T04:10:21;22.73;;;11.32;;
21519;SDS011;10921;53.614;9.882;2023-03-14T04:12:48;21.75;;;12.07;;
21519;SDS011;10921;53.614;9.882;2023-03-14T04:15:14;22.80;;;12.05;;
21519;SDS011;10921;53.614;9.882;2023-03-14T04:17:41;16.45;;;11.02;;
21519;SDS011;10921;53.614;9.882;2023-03-14T04:20:07;16.48;;;11.38;;
21519;SDS011;10921;53.614;9.882;2023-03-14T04:22:37;16.05;;;11.70;;
21519;SDS011;10921;53.614;9.882;2023-03-14T04:25:04;17.38;;;12.02;;
21519;SDS011;10921;53.614;9.882;2023-03-14T04:27:32;19.15;;;12.00;;
21519;SDS011;10921;53.614;9.882;2023-03-14T04:29:58;18.35;;;11.15;;
21519;SDS011;10921;53.614;9.882;2023-03-14T04:32:25;15.80;;;11.55;;
21519;SDS011;10921;53.614;9.882;2023-03-14T04:34:51;18.73;;;11.70;;
21519;SDS011;10921;53.614;9.882;2023-03-14T04:37:18;18.58;;;12.13;;
21519;SDS011;10921;53.614;9.882;2023-03-14T04:39:44;16.13;;;11.88;;
21519;SDS011;10921;53.614;9.882;2023-03-14T04:42:11;13.70;;;11.52;;
21519;SDS011;10921;53.614;9.882;2023-03-14T04:44:37;18.98;;;11.25;;
21519;SDS011;10921;53.614;9.882;2023-03-14T04:47:04;15.05;;;10.35;;
21519;SDS011;10921;53.614;9.882;2023-03-14T04:49:31;10.98;;;10.07;;
21519;SDS011;10921;53.614;9.882;2023-03-14T04:51:57;11.63;;;9.55;;
21519;SDS011;10921;53.614;9.882;2023-03-14T04:54:24;13.48;;;12.27;;
21519;SDS011;10921;53.614;9.882;2023-03-14T04:56:50;17.45;;;16.02;;
21519;SDS011;10921;53.614;9.882;2023-03-14T04:59:17;18.40;;;16.88;;
21519;SDS011;10921;53.614;9.882;2023-03-14T05:01:43;18.70;;;17.30;;
21519;SDS011;10921;53.614;9.882;2023-03-14T05:04:10;18.50;;;17.00;;
21519;SDS011;10921;53.614;9.882;2023-03-14T05:06:36;18.67;;;17.02;;
21519;SDS011;10921;53.614;9.882;2023-03-14T05:09:03;20.98;;;19.10;;
21519;SDS011;10921;53.614;9.882;2023-03-14T05:11:31;21.30;;;19.58;;
21519;SDS011;10921;53.614;9.882;2023-03-14T05:13:58;22.63;;;20.58;;
21519;SDS011;10921;53.614;9.882;2023-03-14T05:16:25;24.00;;;22.02;;
21519;SDS011;10921;53.614;9.882;2023-03-14T05:18:51;25.92;;;23.42;;
21519;SDS011;10921;53.614;9.882;2023-03-14T05:21:18;24.60;;;22.30;;
21519;SDS011;10921;53.614;9.882;2023-03-14T05:23:45;25.42;;;23.15;;
21519;SDS011;10921;53.614;9.882;2023-03-14T05:26:11;26.05;;;23.48;;
21519;SDS011;10921;53.614;9.882;2023-03-14T05:28:38;25.90;;;23.80;;
21519;SDS011;10921;53.614;9.882;2023-03-14T05:31:07;26.60;;;24.25;;
21519;SDS011;10921;53.614;9.882;2023-03-14T05:33:35;27.08;;;24.63;;
21519;SDS011;10921;53.614;9.882;2023-03-14T05:36:02;27.92;;;25.50;;
21519;SDS011;10921;53.614;9.882;2023-03-14T05:38:28;26.60;;;24.27;;
21519;SDS011;10921;53.614;9.882;2023-03-14T05:40:55;26.35;;;24.13;;
21519;SDS011;10921;53.614;9.882;2023-03-14T05:43:21;27.30;;;24.98;;
21519;SDS011;10921;53.614;9.882;2023-03-14T05:45:47;27.77;;;25.27;;
21519;SDS011;10921;53.614;9.882;2023-03-14T05:48:14;29.00;;;26.05;;
21519;SDS011;10921;53.614;9.882;2023-03-14T05:50:41;29.27;;;26.80;;
21519;SDS011;10921;53.614;9.882;2023-03-14T05:53:07;28.80;;;25.92;;
21519;SDS011;10921;53.614;9.882;2023-03-14T05:55:34;29.10;;;26.40;;
21519;SDS011;10921;53.614;9.882;2023-03-14T05:58:00;29.20;;;26.48;;
21519;SDS011;10921;53.614;9.882;2023-03-14T06:00:27;30.08;;;26.98;;
21519;SDS011;10921;53.614;9.882;2023-03-14T06:02:53;31.83;;;28.13;;
21519;SDS011;10921;53.614;9.882;2023-03-14T06:05:20;32.88;;;27.92;;
21519;SDS011;10921;53.614;9.882;2023-03-14T06:07:46;31.77;;;28.65;;
21519;SDS011;10921;53.614;9.882;2023-03-14T06:10:12;33.00;;;29.35;;
21519;SDS011;10921;53.614;9.882;2023-03-14T06:12:39;32.40;;;29.05;;
21519;SDS011;10921;53.614;9.882;2023-03-14T06:15:06;32.72;;;29.52;;
21519;SDS011;10921;53.614;9.882;2023-03-14T06:17:33;33.45;;;29.92;;
21519;SDS011;10921;53.614;9.882;2023-03-14T06:19:59;37.28;;;32.05;;
21519;SDS011;10921;53.614;9.882;2023-03-14T06:22:26;35.58;;;31.77;;
21519;SDS011;10921;53.614;9.882;2023-03-14T06:24:52;33.63;;;30.10;;
21519;SDS011;10921;53.614;9.882;2023-03-14T06:27:19;34.40;;;30.20;;
21519;SDS011;10921;53.614;9.882;2023-03-14T06:29:45;33.25;;;29.90;;
21519;SDS011;10921;53.614;9.882;2023-03-14T06:32:11;34.30;;;30.55;;
21519;SDS011;10921;53.614;9.882;2023-03-14T06:34:38;41.08;;;30.17;;
21519;SDS011;10921;53.614;9.882;2023-03-14T06:37:05;32.78;;;29.38;;
21519;SDS011;10921;53.614;9.882;2023-03-14T06:39:32;35.92;;;30.80;;
21519;SDS011;10921;53.614;9.882;2023-03-14T06:41:58;33.00;;;29.60;;
21519;SDS011;10921;53.614;9.882;2023-03-14T06:44:25;32.72;;;29.35;;
21519;SDS011;10921;53.614;9.882;2023-03-14T06:46:51;36.00;;;29.77;;
21519;SDS011;10921;53.614;9.882;2023-03-14T06:49:18;35.70;;;29.17;;
21519;SDS011;10921;53.614;9.882;2023-03-14T06:51:45;31.65;;;28.38;;
21519;SDS011;10921;53.614;9.882;2023-03-14T06:54:11;34.42;;;28.10;;
21519;SDS011;10921;53.614;9.882;2023-03-14T06:56:38;33.17;;;29.13;;
21519;SDS011;10921;53.614;9.882;2023-03-14T06:59:05;31.65;;;28.30;;
21519;SDS011;10921;53.614;9.882;2023-03-14T07:01:32;30.63;;;27.33;;
21519;SDS011;10921;53.614;9.882;2023-03-14T07:04:01;31.60;;;26.33;;
21519;SDS011;10921;53.614;9.882;2023-03-14T07:06:28;30.05;;;24.90;;
21519;SDS011;10921;53.614;9.882;2023-03-14T07:08:57;26.45;;;23.70;;
21519;SDS011;10921;53.614;9.882;2023-03-14T07:11:24;30.77;;;22.52;;
21519;SDS011;10921;53.614;9.882;2023-03-14T07:13:51;31.25;;;20.42;;
21519;SDS011;10921;53.614;9.882;2023-03-14T07:16:18;24.17;;;19.77;;
21519;SDS011;10921;53.614;9.882;2023-03-14T07:18:44;26.17;;;18.88;;
21519;SDS011;10921;53.614;9.882;2023-03-14T07:21:11;24.65;;;18.45;;
21519;SDS011;10921;53.614;9.882;2023-03-14T07:23:38;19.63;;;17.55;;
21519;SDS011;10921;53.614;9.882;2023-03-14T07:26:05;21.42;;;17.80;;
21519;SDS011;10921;53.614;9.882;2023-03-14T07:28:32;19.63;;;16.92;;
21519;SDS011;10921;53.614;9.882;2023-03-14T07:30:59;26.80;;;18.65;;
21519;SDS011;10921;53.614;9.882;2023-03-14T07:33:25;28.33;;;18.85;;
21519;SDS011;10921;53.614;9.882;2023-03-14T07:35:52;23.33;;;18.00;;
21519;SDS011;10921;53.614;9.882;2023-03-14T07:38:18;17.98;;;15.95;;
21519;SDS011;10921;53.614;9.882;2023-03-14T07:40:48;19.13;;;16.35;;
21519;SDS011;10921;53.614;9.882;2023-03-14T07:43:15;20.58;;;17.02;;
21519;SDS011;10921;53.614;9.882;2023-03-14T07:45:44;21.40;;;17.13;;
21519;SDS011;10921;53.614;9.882;2023-03-14T07:48:16;20.42;;;17.70;;
21519;SDS011;10921;53.614;9.882;2023-03-14T07:50:43;26.98;;;18.63;;
21519;SDS011;10921;53.614;9.882;2023-03-14T07:53:09;27.80;;;17.90;;
21519;SDS011;10921;53.614;9.882;2023-03-14T07:55:36;24.80;;;17.23;;
21519;SDS011;10921;53.614;9.882;2023-03-14T07:58:03;22.20;;;15.80;;
21519;SDS011;10921;53.614;9.882;2023-03-14T08:00:29;21.30;;;15.27;;
21519;SDS011;10921;53.614;9.882;2023-03-14T08:02:56;18.70;;;15.90;;
21519;SDS011;10921;53.614;9.882;2023-03-14T08:05:23;16.58;;;14.88;;
21519;SDS011;10921;53.614;9.882;2023-03-14T08:07:49;16.60;;;14.90;;
21519;SDS011;10921;53.614;9.882;2023-03-14T08:10:16;26.85;;;14.30;;
21519;SDS011;10921;53.614;9.882;2023-03-14T08:12:53;24.17;;;14.45;;
21519;SDS011;10921;53.614;9.882;2023-03-14T08:15:22;17.10;;;13.00;;
21519;SDS011;10921;53.614;9.882;2023-03-14T08:17:50;13.82;;;12.52;;
21519;SDS011;10921;53.614;9.882;2023-03-14T08:20:17;15.07;;;12.50;;
21519;SDS011;10921;53.614;9.882;2023-03-14T08:22:45;13.52;;;12.13;;
21519;SDS011;10921;53.614;9.882;2023-03-14T08:25:11;15.43;;;11.50;;
21519;SDS011;10921;53.614;9.882;2023-03-14T08:27:38;16.55;;;11.43;;
21519;SDS011;10921;53.614;9.882;2023-03-14T08:30:06;21.70;;;13.13;;
21519;SDS011;10921;53.614;9.882;2023-03-14T08:32:33;14.00;;;12.60;;
21519;SDS011;10921;53.614;9.882;2023-03-14T08:35:00;14.38;;;12.32;;
21519;SDS011;10921;53.614;9.882;2023-03-14T08:37:27;14.45;;;12.10;;
21519;SDS011;10921;53.614;9.882;2023-03-14T08:39:54;13.82;;;12.02;;
21519;SDS011;10921;53.614;9.882;2023-03-14T08:42:20;16.05;;;12.70;;
21519;SDS011;10921;53.614;9.882;2023-03-14T08:44:47;16.77;;;13.10;;
21519;SDS011;10921;53.614;9.882;2023-03-14T08:47:14;14.93;;;13.35;;
21519;SDS011;10921;53.614;9.882;2023-03-14T08:49:40;19.60;;;15.23;;
21519;SDS011;10921;53.614;9.882;2023-03-14T08:52:11;19.33;;;15.55;;
21519;SDS011;10921;53.614;9.882;2023-03-14T08:54:37;18.23;;;16.45;;
21519;SDS011;10921;53.614;9.882;2023-03-14T08:57:04;20.90;;;19.08;;
21519;SDS011;10921;53.614;9.882;2023-03-14T08:59:31;22.92;;;20.83;;
21519;SDS011;10921;53.614;9.882;2023-03-14T09:01:58;25.58;;;21.95;;
21519;SDS011;10921;53.614;9.882;2023-03-14T09:04:24;25.17;;;22.67;;
21519;SDS011;10921;53.614;9.882;2023-03-14T09:06:51;26.13;;;23.40;;
21519;SDS011;10921;53.614;9.882;2023-03-14T09:09:17;25.65;;;23.08;;
21519;SDS011;10921;53.614;9.882;2023-03-14T09:11:44;27.73;;;25.17;;
21519;SDS011;10921;53.614;9.882;2023-03-14T09:14:11;28.30;;;25.17;;
21519;SDS011;10921;53.614;9.882;2023-03-14T09:16:37;28.67;;;25.83;;
21519;SDS011;10921;53.614;9.882;2023-03-14T09:19:04;31.45;;;25.55;;
21519;SDS011;10921;53.614;9.882;2023-03-14T09:21:31;29.65;;;25.35;;
21519;SDS011;10921;53.614;9.882;2023-03-14T09:23:58;28.95;;;26.08;;
21519;SDS011;10921;53.614;9.882;2023-03-14T09:26:24;29.30;;;26.33;;
21519;SDS011;10921;53.614;9.882;2023-03-14T09:28:51;29.80;;;26.67;;
21519;SDS011;10921;53.614;9.882;2023-03-14T09:31:17;31.88;;;28.48;;
21519;SDS011;10921;53.614;9.882;2023-03-14T09:33:44;32.90;;;29.30;;
21519;SDS011;10921;53.614;9.882;2023-03-14T09:36:10;35.42;;;29.55;;
21519;SDS011;10921;53.614;9.882;2023-03-14T09:38:37;33.13;;;29.63;;
21519;SDS011;10921;53.614;9.882;2023-03-14T09:41:12;33.25;;;29.65;;
21519;SDS011;10921;53.614;9.882;2023-03-14T09:43:41;31.90;;;28.88;;
21519;SDS011;10921;53.614;9.882;2023-03-14T09:46:09;29.92;;;27.23;;
21519;SDS011;10921;53.614;9.882;2023-03-14T09:48:37;28.90;;;26.52;;
21519;SDS011;10921;53.614;9.882;2023-03-14T09:51:05;29.70;;;26.88;;
21519;SDS011;10921;53.614;9.882;2023-03-14T09:53:42;28.52;;;26.13;;
21519;SDS011;10921;53.614;9.882;2023-03-14T09:56:16;29.48;;;27.08;;
21519;SDS011;10921;53.614;9.882;2023-03-14T09:58:52;29.00;;;26.50;;
21519;SDS011;10921;53.614;9.882;2023-03-14T10:01:24;28.88;;;26.63;;
21519;SDS011;10921;53.614;9.882;2023-03-14T10:03:56;30.77;;;27.35;;
21519;SDS011;10921;53.614;9.882;2023-03-14T10:06:26;29.77;;;27.10;;
21519;SDS011;10921;53.614;9.882;2023-03-14T10:08:56;29.63;;;27.02;;
21519;SDS011;10921;53.614;9.882;2023-03-14T10:11:23;29.73;;;27.02;;
21519;SDS011;10921;53.614;9.882;2023-03-14T10:14:04;30.13;;;27.27;;
21519;SDS011;10921;53.614;9.882;2023-03-14T10:16:32;29.73;;;27.08;;
21519;SDS011;10921;53.614;9.882;2023-03-14T10:19:01;28.08;;;25.70;;
21519;SDS011;10921;53.614;9.882;2023-03-14T10:21:31;28.73;;;26.60;;
21519;SDS011;10921;53.614;9.882;2023-03-14T10:24:19;27.45;;;25.27;;
21519;SDS011;10921;53.614;9.882;2023-03-14T10:26:49;28.13;;;25.98;;
21519;SDS011;10921;53.614;9.882;2023-03-14T10:29:19;29.83;;;27.52;;
21519;SDS011;10921;53.614;9.882;2023-03-14T10:34:32;29.40;;;27.15;;
21519;SDS011;10921;53.614;9.882;2023-03-14T10:37:07;29.98;;;27.75;;
21519;SDS011;10921;53.614;9.882;2023-03-14T10:39:55;29.42;;;27.25;;
21519;SDS011;10921;53.614;9.882;2023-03-14T10:42:32;29.73;;;27.52;;
21519;SDS011;10921;53.614;9.882;2023-03-14T10:45:06;29.88;;;27.52;;
21519;SDS011;10921;53.614;9.882;2023-03-14T10:47:49;29.60;;;27.30;;
21519;SDS011;10921;53.614;9.882;2023-03-14T10:50:29;27.67;;;25.63;;
21519;SDS011;10921;53.614;9.882;2023-03-14T10:52:57;27.83;;;25.58;;
21519;SDS011;10921;53.614;9.882;2023-03-14T10:55:39;27.38;;;25.25;;
21519;SDS011;10921;53.614;9.882;2023-03-14T10:58:21;26.80;;;24.90;;
21519;SDS011;10921;53.614;9.882;2023-03-14T11:03:41;26.88;;;24.80;;
21519;SDS011;10921;53.614;9.882;2023-03-14T11:06:35;26.10;;;24.20;;
21519;SDS011;10921;53.614;9.882;2023-03-14T11:09:26;27.65;;;25.20;;
21519;SDS011;10921;53.614;9.882;2023-03-14T11:11:54;25.20;;;23.35;;
21519;SDS011;10921;53.614;9.882;2023-03-14T11:14:30;25.23;;;23.00;;
21519;SDS011;10921;53.614;9.882;2023-03-14T11:20:53;24.98;;;22.70;;
21519;SDS011;10921;53.614;9.882;2023-03-14T11:29:39;22.88;;;20.60;;
21519;SDS011;10921;53.614;9.882;2023-03-14T11:35:16;22.17;;;20.05;;
21519;SDS011;10921;53.614;9.882;2023-03-14T11:37:51;21.35;;;19.30;;
21519;SDS011;10921;53.614;9.882;2023-03-14T11:43:11;19.52;;;17.88;;
21519;SDS011;10921;53.614;9.882;2023-03-14T11:45:54;19.95;;;16.55;;
21519;SDS011;10921;53.614;9.882;2023-03-14T11:51:15;16.75;;;15.05;;
21519;SDS011;10921;53.614;9.882;2023-03-14T11:57:05;16.40;;;13.88;;
21519;SDS011;10921;53.614;9.882;2023-03-14T12:05:18;14.38;;;12.98;;
21519;SDS011;10921;53.614;9.882;2023-03-14T12:10:23;17.05;;;11.73;;
21519;SDS011;10921;53.614;9.882;2023-03-14T12:12:50;22.63;;;11.52;;
21519;SDS011;10921;53.614;9.882;2023-03-14T12:15:21;13.63;;;10.93;;
21519;SDS011;10921;53.614;9.882;2023-03-14T12:17:54;15.00;;;11.15;;
21519;SDS011;10921;53.614;9.882;2023-03-14T12:20:22;19.75;;;11.95;;
21519;SDS011;10921;53.614;9.882;2023-03-14T12:23:24;23.07;;;11.03;;
21519;SDS011;10921;53.614;9.882;2023-03-14T12:25:44;20.65;;;11.38;;
21519;SDS011;10921;53.614;9.882;2023-03-14T12:30:40;21.57;;;11.97;;
21519;SDS011;10921;53.614;9.882;2023-03-14T12:35:47;18.95;;;11.93;;
21519;SDS011;10921;53.614;9.882;2023-03-14T12:43:46;18.90;;;11.35;;
21519;SDS011;10921;53.614;9.882;2023-03-14T12:46:20;16.65;;;10.55;;
21519;SDS011;10921;53.614;9.882;2023-03-14T12:48:53;21.48;;;11.45;;
21519;SDS011;10921;53.614;9.882;2023-03-14T12:51:35;20.45;;;11.30;;
21519;SDS011;10921;53.614;9.882;2023-03-14T13:00:17;22.60;;;12.25;;
21519;SDS011;10921;53.614;9.882;2023-03-14T13:02:46;16.52;;;12.13;;
21519;SDS011;10921;53.614;9.882;2023-03-14T13:05:18;18.80;;;11.57;;
21519;SDS011;10921;53.614;9.882;2023-03-14T13:10:24;21.67;;;11.80;;
21519;SDS011;10921;53.614;9.882;2023-03-14T13:12:56;23.65;;;11.88;;
21519;SDS011;10921;53.614;9.882;2023-03-14T13:15:49;32.83;;;13.70;;
21519;SDS011;10921;53.614;9.882;2023-03-14T13:20:53;21.85;;;12.77;;
21519;SDS011;10921;53.614;9.882;2023-03-14T13:23:25;12.55;;;9.95;;
21519;SDS011;10921;53.614;9.882;2023-03-14T13:25:54;22.50;;;11.93;;
21519;SDS011;10921;53.614;9.882;2023-03-14T13:28:22;19.75;;;11.13;;
21519;SDS011;10921;53.614;9.882;2023-03-14T13:30:58;22.55;;;11.60;;
21519;SDS011;10921;53.614;9.882;2023-03-14T13:33:28;19.30;;;11.00;;
21519;SDS011;10921;53.614;9.882;2023-03-14T13:35:56;17.75;;;11.93;;
21519;SDS011;10921;53.614;9.882;2023-03-14T13:38:29;17.73;;;11.82;;
21519;SDS011;10921;53.614;9.882;2023-03-14T13:40:59;18.25;;;10.90;;
21519;SDS011;10921;53.614;9.882;2023-03-14T13:43:31;15.27;;;10.88;;
21519;SDS011;10921;53.614;9.882;2023-03-14T13:46:06;29.80;;;11.40;;
21519;SDS011;10921;53.614;9.882;2023-03-14T13:48:43;23.48;;;11.15;;
21519;SDS011;10921;53.614;9.882;2023-03-14T13:51:13;15.30;;;11.60;;
21519;SDS011;10921;53.614;9.882;2023-03-14T13:53:43;23.45;;;11.50;;
21519;SDS011;10921;53.614;9.882;2023-03-14T13:56:10;18.63;;;11.10;;
21519;SDS011;10921;53.614;9.882;2023-03-14T13:58:38;29.30;;;11.88;;
21519;SDS011;10921;53.614;9.882;2023-03-14T14:01:18;22.13;;;11.55;;
21519;SDS011;10921;53.614;9.882;2023-03-14T14:03:49;25.40;;;12.23;;
21519;SDS011;10921;53.614;9.882;2023-03-14T14:09:12;21.00;;;11.43;;
21519;SDS011;10921;53.614;9.882;2023-03-14T14:11:48;21.50;;;11.48;;
21519;SDS011;10921;53.614;9.882;2023-03-14T14:14:45;24.45;;;11.80;;
21519;SDS011;10921;53.614;9.882;2023-03-14T14:17:21;22.85;;;11.75;;
21519;SDS011;10921;53.614;9.882;2023-03-14T14:20:02;26.52;;;11.75;;
21519;SDS011;10921;53.614;9.882;2023-03-14T14:24:59;19.20;;;11.05;;
21519;SDS011;10921;53.614;9.882;2023-03-14T14:27:32;21.33;;;11.85;;
21519;SDS011;10921;53.614;9.882;2023-03-14T14:30:06;18.48;;;11.13;;
21519;SDS011;10921;53.614;9.882;2023-03-14T14:33:06;19.05;;;11.75;;
21519;SDS011;10921;53.614;9.882;2023-03-14T14:35:54;30.20;;;12.20;;
21519;SDS011;10921;53.614;9.882;2023-03-14T14:38:24;18.30;;;11.13;;
21519;SDS011;10921;53.614;9.882;2023-03-14T14:40:54;14.38;;;10.68;;
21519;SDS011;10921;53.614;9.882;2023-03-14T14:43:26;18.42;;;10.68;;
21519;SDS011;10921;53.614;9.882;2023-03-14T14:45:54;15.73;;;10.93;;
21519;SDS011;10921;53.614;9.882;2023-03-14T14:48:24;11.93;;;10.05;;
21519;SDS011;10921;53.614;9.882;2023-03-14T14:53:39;12.77;;;10.57;;
21519;SDS011;10921;53.614;9.882;2023-03-14T14:56:14;16.42;;;10.70;;
21519;SDS011;10921;53.614;9.882;2023-03-14T14:58:43;16.70;;;10.32;;
21519;SDS011;10921;53.614;9.882;2023-03-14T15:03:47;24.67;;;10.85;;
21519;SDS011;10921;53.614;9.882;2023-03-14T15:06:16;23.15;;;10.80;;
21519;SDS011;10921;53.614;9.882;2023-03-14T15:08:44;18.60;;;10.68;;
21519;SDS011;10921;53.614;9.882;2023-03-14T15:11:16;12.90;;;10.27;;
21519;SDS011;10921;53.614;9.882;2023-03-14T15:13:50;23.02;;;11.00;;
21519;SDS011;10921;53.614;9.882;2023-03-14T15:16:18;14.55;;;10.45;;
21519;SDS011;10921;53.614;9.882;2023-03-14T15:18:52;14.63;;;10.60;;
21519;SDS011;10921;53.614;9.882;2023-03-14T15:21:22;25.20;;;10.65;;
21519;SDS011;10921;53.614;9.882;2023-03-14T15:23:49;17.58;;;10.35;;
21519;SDS011;10921;53.614;9.882;2023-03-14T15:26:17;17.25;;;10.77;;
21519;SDS011;10921;53.614;9.882;2023-03-14T15:28:46;23.45;;;11.75;;
21519;SDS011;10921;53.614;9.882;2023-03-14T15:31:13;24.10;;;11.70;;
21519;SDS011;10921;53.614;9.882;2023-03-14T15:33:42;29.35;;;14.73;;
21519;SDS011;10921;53.614;9.882;2023-03-14T15:36:31;21.80;;;11.27;;
21519;SDS011;10921;53.614;9.882;2023-03-14T15:38:58;22.38;;;11.25;;
21519;SDS011;10921;53.614;9.882;2023-03-14T15:41:25;23.13;;;11.13;;
21519;SDS011;10921;53.614;9.882;2023-03-14T15:43:53;17.77;;;10.30;;
21519;SDS011;10921;53.614;9.882;2023-03-14T15:46:20;20.48;;;10.48;;
21519;SDS011;10921;53.614;9.882;2023-03-14T15:48:48;15.27;;;11.35;;
21519;SDS011;10921;53.614;9.882;2023-03-14T15:51:16;21.83;;;11.18;;